Time;durP1;ratioP1;P1;durP2;ratioP2;P2;SDS_P1;SDS_P2;PMS_P1;PMS_P2;Temp;Humidity;BMP_temperature;BMP_pressure;BME280_temperature;BME280_humidity;BME280_pressure;Samples;Min_cycle;Max_cycle;Signal;HPM_P1;HPM_P2
2022/08/23 00:01:27;;;;;;;2.10;1.42;;;16.10;99.90;;;;;;5081474;28;20046;-70
2022/08/23 00:03:59;;;;;;;5.03;2.45;;;16.10;99.90;;;;;;5085071;28;20139;-71
2022/08/23 00:06:27;;;;;;;6.05;2.08;;;16.10;99.90;;;;;;5083896;28;20115;-73
2022/08/23 00:08:54;;;;;;;2.53;1.48;;;16.10;99.90;;;;;;5084094;28;20074;-69
2022/08/23 00:11:44;;;;;;;4.10;2.10;;;16.10;99.90;;;;;;5081363;28;20068;-69
2022/08/23 00:14:19;;;;;;;2.78;1.48;;;16.10;99.90;;;;;;5084097;28;20159;-69
2022/08/23 00:16:47;;;;;;;3.08;2.00;;;16.20;99.90;;;;;;5080592;28;20064;-70
2022/08/23 00:19:16;;;;;;;4.78;1.88;;;16.20;99.90;;;;;;5084289;28;20040;-71
2022/08/23 00:21:45;;;;;;;3.95;2.03;;;16.20;99.90;;;;;;5082359;28;20059;-71
2022/08/23 00:24:12;;;;;;;4.35;1.80;;;16.20;99.90;;;;;;5074828;28;20461;-70
2022/08/23 00:26:52;;;;;;;6.95;2.47;;;16.20;99.90;;;;;;5091859;28;20119;-69
2022/08/23 00:29:20;;;;;;;3.55;1.98;;;16.20;99.90;;;;;;5081716;28;20811;-72
2022/08/23 00:31:50;;;;;;;3.33;1.30;;;16.20;99.90;;;;;;5080334;28;20810;-70
2022/08/23 00:34:17;;;;;;;8.40;2.20;;;16.20;99.90;;;;;;5083689;28;20044;-70
2022/08/23 00:36:44;;;;;;;1.40;1.30;;;16.20;99.90;;;;;;5083067;28;20048;-69
2022/08/23 00:39:11;;;;;;;5.00;1.65;;;16.20;99.90;;;;;;5085015;28;20144;-71
2022/08/23 00:41:38;;;;;;;5.97;2.38;;;16.20;99.90;;;;;;5080724;28;20048;-70
2022/08/23 00:47:44;;;;;;;1.75;1.60;;;16.20;99.90;;;;;;5056371;28;20075;-73
2022/08/23 00:50:15;;;;;;;3.25;2.55;;;16.20;99.90;;;;;;5064735;28;20047;-69
2022/08/23 00:53:04;;;;;;;4.22;1.88;;;16.20;99.90;;;;;;5066454;28;20112;-70
2022/08/23 00:55:32;;;;;;;6.78;2.00;;;16.20;99.90;;;;;;5076205;28;20059;-72
2022/08/23 00:58:00;;;;;;;1.88;1.63;;;16.20;99.90;;;;;;5083958;28;20056;-71
2022/08/23 01:00:28;;;;;;;6.15;2.13;;;16.20;99.90;;;;;;5083365;28;20044;-70
2022/08/23 01:02:56;;;;;;;3.95;2.53;;;16.20;99.90;;;;;;5079854;28;20052;-70
2022/08/23 01:05:30;;;;;;;4.25;1.80;;;16.20;99.90;;;;;;5081124;28;20047;-71
2022/08/23 01:07:58;;;;;;;2.03;1.83;;;16.10;99.90;;;;;;5064998;28;20071;-70
2022/08/23 01:10:55;;;;;;;8.95;2.33;;;16.10;99.90;;;;;;5076398;28;20044;-73
2022/08/23 01:13:39;;;;;;;7.05;2.13;;;16.10;99.90;;;;;;5041196;28;20120;-69
2022/08/23 01:16:22;;;;;;;9.80;2.38;;;16.10;99.90;;;;;;5078681;28;20054;-69
2022/08/23 01:18:50;;;;;;;5.80;1.70;;;16.10;99.90;;;;;;5077082;28;20048;-71
2022/08/23 01:21:44;;;;;;;3.63;2.00;;;16.10;99.90;;;;;;5062629;28;20040;-70
2022/08/23 01:24:12;;;;;;;2.35;1.50;;;16.10;99.90;;;;;;5063555;28;20089;-70
2022/08/23 01:27:00;;;;;;;6.18;2.92;;;16.00;99.90;;;;;;5064788;28;20130;-70
2022/08/23 01:29:27;;;;;;;1.58;1.48;;;16.10;99.90;;;;;;5079578;28;20156;-70
2022/08/23 01:31:55;;;;;;;3.20;1.80;;;16.00;99.90;;;;;;5082405;28;20452;-69
2022/08/23 01:34:27;;;;;;;3.10;1.50;;;16.00;99.90;;;;;;5064152;28;20044;-70
2022/08/23 01:36:57;;;;;;;3.63;1.73;;;16.00;99.90;;;;;;5081076;28;20059;-69
2022/08/23 01:39:24;;;;;;;5.30;3.45;;;16.00;99.90;;;;;;5062743;28;20724;-71
2022/08/23 01:41:51;;;;;;;7.65;1.90;;;16.00;99.90;;;;;;5064415;28;20051;-69
2022/08/23 01:44:18;;;;;;;4.03;1.98;;;15.90;99.90;;;;;;5065010;28;20117;-71
2022/08/23 01:46:46;;;;;;;12.45;4.00;;;15.90;99.90;;;;;;5065059;28;20051;-69
2022/08/23 01:49:14;;;;;;;4.63;1.60;;;15.90;99.90;;;;;;5086740;28;20051;-69
2022/08/23 01:51:42;;;;;;;3.47;1.63;;;15.90;99.90;;;;;;5064191;28;20085;-72
2022/08/23 01:54:09;;;;;;;8.63;2.25;;;15.90;99.90;;;;;;5066704;28;20044;-70
2022/08/23 01:56:38;;;;;;;7.35;1.90;;;15.90;99.90;;;;;;5067184;28;20154;-70
2022/08/23 01:59:09;;;;;;;5.05;1.73;;;15.80;99.90;;;;;;5067458;28;20124;-71
2022/08/23 02:01:41;;;;;;;4.28;1.60;;;15.90;99.90;;;;;;5060557;28;20116;-69
2022/08/23 02:04:09;;;;;;;4.25;1.88;;;15.80;99.90;;;;;;5067580;28;20047;-69
2022/08/23 02:06:37;;;;;;;4.75;2.28;;;15.80;99.90;;;;;;5079425;28;20159;-70
2022/08/23 02:09:04;;;;;;;2.38;1.92;;;15.80;99.90;;;;;;5067478;28;20051;-69
2022/08/23 02:11:45;;;;;;;2.53;1.83;;;15.80;99.90;;;;;;5066610;28;20124;-69
2022/08/23 02:14:17;;;;;;;2.95;1.75;;;15.80;99.90;;;;;;5065122;28;20147;-70
2022/08/23 02:16:52;;;;;;;3.08;1.70;;;15.80;99.90;;;;;;5091002;28;20068;-72
2022/08/23 02:19:36;;;;;;;3.92;1.50;;;15.70;99.90;;;;;;5070301;28;20165;-68
2022/08/23 02:22:06;;;;;;;6.63;1.73;;;15.70;99.90;;;;;;5067710;28;20778;-69
2022/08/23 02:24:37;;;;;;;6.50;1.58;;;15.70;99.90;;;;;;5064327;28;20126;-71
2022/08/23 02:27:05;;;;;;;5.30;2.15;;;15.70;99.90;;;;;;5068155;28;20051;-68
2022/08/23 02:29:37;;;;;;;9.60;2.47;;;15.70;99.90;;;;;;5065641;28;20040;-71
2022/08/23 02:32:10;;;;;;;5.05;1.67;;;15.70;99.90;;;;;;5068104;28;20105;-69
2022/08/23 02:34:39;;;;;;;6.33;2.27;;;15.70;99.90;;;;;;5067431;28;20055;-70
2022/08/23 02:37:08;;;;;;;5.13;1.90;;;15.70;99.90;;;;;;5085632;28;20101;-69
2022/08/23 02:39:35;;;;;;;7.45;2.40;;;15.70;99.90;;;;;;5062747;28;20066;-69
2022/08/23 02:42:05;;;;;;;3.75;2.10;;;15.70;99.90;;;;;;5067322;28;20048;-70
2022/08/23 02:44:35;;;;;;;7.43;1.83;;;15.70;99.90;;;;;;5067562;28;20123;-68
2022/08/23 02:47:02;;;;;;;3.38;1.10;;;15.70;99.90;;;;;;5074571;28;20040;-71
2022/08/23 02:49:30;;;;;;;2.90;1.30;;;15.70;99.90;;;;;;5065834;28;20052;-69
2022/08/23 02:51:57;;;;;;;3.33;2.10;;;15.70;99.90;;;;;;5067718;28;20078;-69
2022/08/23 02:54:25;;;;;;;3.10;1.25;;;15.70;99.90;;;;;;5064008;28;20422;-70
2022/08/23 02:56:53;;;;;;;4.65;1.48;;;15.70;99.90;;;;;;5085065;28;20101;-70
2022/08/23 02:59:20;;;;;;;2.58;1.50;;;15.80;99.90;;;;;;5064095;28;20086;-70
2022/08/23 03:01:46;;;;;;;6.35;2.55;;;15.70;99.90;;;;;;5067863;28;20044;-70
2022/08/23 03:04:26;;;;;;;2.33;2.20;;;15.80;99.90;;;;;;5066836;28;20050;-69
2022/08/23 03:06:54;;;;;;;4.32;1.30;;;15.80;99.90;;;;;;5063976;28;20109;-70
2022/08/23 03:09:21;;;;;;;3.53;2.13;;;15.80;99.90;;;;;;5047644;28;20964;-70
2022/08/23 03:11:49;;;;;;;2.20;1.40;;;15.80;99.90;;;;;;5056325;28;20856;-71
2022/08/23 03:14:17;;;;;;;5.07;1.52;;;15.80;99.90;;;;;;5066108;28;20166;-69
2022/08/23 03:16:44;;;;;;;6.20;1.80;;;15.80;99.90;;;;;;5066642;28;20392;-69
2022/08/23 03:19:11;;;;;;;4.72;1.75;;;15.80;99.90;;;;;;5085204;28;20419;-73
2022/08/23 03:21:38;;;;;;;3.70;1.63;;;15.80;99.90;;;;;;5073057;28;20059;-69
2022/08/23 03:24:10;;;;;;;5.38;1.67;;;15.80;99.90;;;;;;5067319;28;20135;-70
2022/08/23 03:26:42;;;;;;;3.53;1.50;;;15.80;99.90;;;;;;5063454;28;20048;-71
2022/08/23 03:29:09;;;;;;;4.20;1.38;;;15.90;99.90;;;;;;5086079;28;20048;-70
2022/08/23 03:31:54;;;;;;;5.28;1.75;;;15.90;99.90;;;;;;5083355;28;20040;-69
2022/08/23 03:34:21;;;;;;;7.75;2.42;;;15.90;99.90;;;;;;5066676;28;20392;-70
2022/08/23 03:36:48;;;;;;;3.63;1.30;;;15.90;99.90;;;;;;5065399;28;20052;-71
2022/08/23 03:39:15;;;;;;;3.92;1.30;;;15.90;99.90;;;;;;5063496;28;20343;-69
2022/08/23 03:41:42;;;;;;;2.22;1.55;;;15.90;99.90;;;;;;5064658;28;20238;-69
2022/08/23 03:44:10;;;;;;;2.33;1.33;;;15.90;99.90;;;;;;5061008;28;20044;-74
2022/08/23 03:46:41;;;;;;;4.20;1.27;;;15.90;99.90;;;;;;5068330;28;20129;-69
2022/08/23 03:49:08;;;;;;;2.60;1.13;;;16.00;99.90;;;;;;5066142;28;20151;-69
2022/08/23 03:51:43;;;;;;;4.15;1.42;;;16.00;99.90;;;;;;5059889;28;20049;-70
2022/08/23 03:54:10;;;;;;;4.15;1.25;;;16.00;99.90;;;;;;5059609;28;20743;-70
2022/08/23 03:56:49;;;;;;;4.35;1.13;;;16.00;99.90;;;;;;5047264;28;20728;-70
2022/08/23 03:59:16;;;;;;;3.20;2.03;;;16.00;99.90;;;;;;5058431;28;20048;-67
2022/08/23 04:01:43;;;;;;;1.52;1.30;;;16.10;99.90;;;;;;5047378;28;20044;-70
2022/08/23 04:04:10;;;;;;;3.08;1.55;;;16.10;99.90;;;;;;5053137;28;20388;-75
2022/08/23 04:06:47;;;;;;;4.53;1.55;;;16.10;99.90;;;;;;5066042;28;20060;-71
2022/08/23 04:09:16;;;;;;;1.85;0.90;;;16.10;99.90;;;;;;5063967;28;20059;-69
2022/08/23 04:11:44;;;;;;;5.07;1.52;;;16.20;99.90;;;;;;5063056;28;20346;-70
2022/08/23 04:14:12;;;;;;;3.60;0.93;;;16.20;99.90;;;;;;5078943;28;20617;-73
2022/08/23 04:16:40;;;;;;;9.00;2.55;;;16.20;99.90;;;;;;5065012;28;20623;-68
2022/08/23 04:19:15;;;;;;;4.55;1.50;;;16.30;99.90;;;;;;5084114;28;20130;-68
2022/08/23 04:21:57;;;;;;;2.75;1.85;;;16.30;99.90;;;;;;5065028;28;20048;-73
2022/08/23 04:24:27;;;;;;;1.23;1.10;;;16.40;99.90;;;;;;5065083;28;20052;-71
2022/08/23 04:26:55;;;;;;;8.25;2.42;;;16.40;99.90;;;;;;5064626;28;20138;-69
2022/08/23 04:29:22;;;;;;;1.73;1.00;;;16.40;99.90;;;;;;5063665;28;20052;-71
2022/08/23 04:32:02;;;;;;;7.78;2.08;;;16.50;99.90;;;;;;5059392;28;20387;-72
2022/08/23 04:34:35;;;;;;;2.75;1.77;;;16.50;99.90;;;;;;5077119;27;20048;-70
2022/08/23 04:37:02;;;;;;;4.32;1.23;;;16.60;99.90;;;;;;5065159;28;20044;-71
2022/08/23 04:42:23;;;;;;;6.55;1.92;;;16.60;99.90;;;;;;5061607;28;20048;-71
2022/08/23 04:44:51;;;;;;;2.85;0.90;;;16.70;99.90;;;;;;5059156;28;20384;-70
2022/08/23 04:47:19;;;;;;;3.90;1.80;;;16.70;99.90;;;;;;5060396;28;20063;-73
2022/08/23 04:49:47;;;;;;;1.88;0.77;;;16.70;99.90;;;;;;5067384;28;20052;-71
2022/08/23 04:52:14;;;;;;;7.28;2.92;;;16.80;99.90;;;;;;5082862;28;20044;-70
2022/08/23 04:54:46;;;;;;;4.22;1.40;;;16.90;99.90;;;;;;5062793;28;20468;-72
2022/08/23 04:57:41;;;;;;;3.63;2.40;;;16.90;99.90;;;;;;5077085;28;20040;-69
2022/08/23 05:00:12;;;;;;;2.75;0.98;;;17.00;99.90;;;;;;5063704;28;20135;-69
2022/08/23 05:02:46;;;;;;;2.70;1.17;;;17.00;99.90;;;;;;5061259;28;20774;-70
2022/08/23 05:05:14;;;;;;;3.65;1.80;;;17.10;99.90;;;;;;5081245;28;20051;-71
2022/08/23 05:07:44;;;;;;;3.28;1.45;;;17.10;99.90;;;;;;5063853;28;20115;-72
2022/08/23 05:10:14;;;;;;;6.70;1.20;;;17.10;99.90;;;;;;5062451;28;20048;-73
2022/08/23 05:12:46;;;;;;;2.83;0.65;;;17.10;99.90;;;;;;5062825;28;20058;-70
2022/08/23 05:15:13;;;;;;;4.20;1.33;;;17.10;99.90;;;;;;5067566;28;20051;-71
2022/08/23 05:17:44;;;;;;;6.80;1.45;;;17.10;99.90;;;;;;5059984;28;20040;-72
2022/08/23 05:20:11;;;;;;;4.15;1.50;;;17.20;99.90;;;;;;5064737;28;20115;-70
2022/08/23 05:22:40;;;;;;;2.13;0.98;;;17.20;99.90;;;;;;5063786;28;20814;-69
2022/08/23 05:25:21;;;;;;;3.75;1.02;;;17.20;99.90;;;;;;5060779;28;20120;-69
2022/08/23 05:27:50;;;;;;;2.97;0.63;;;17.20;99.90;;;;;;5080942;28;20377;-73
2022/08/23 05:30:17;;;;;;;1.23;1.13;;;17.20;99.90;;;;;;5082798;28;20075;-70
2022/08/23 05:32:45;;;;;;;2.97;0.70;;;17.20;99.90;;;;;;5063894;28;20051;-69
2022/08/23 05:35:12;;;;;;;4.47;1.00;;;17.30;99.90;;;;;;5060501;28;20048;-72
2022/08/23 05:37:43;;;;;;;2.83;0.70;;;17.30;99.90;;;;;;5042731;28;20036;-70
2022/08/23 05:40:10;;;;;;;0.90;0.82;;;17.30;99.90;;;;;;5059324;28;20126;-72
2022/08/23 05:42:49;;;;;;;3.15;1.17;;;17.30;99.90;;;;;;5044587;28;20056;-72
2022/08/23 05:45:16;;;;;;;2.28;0.95;;;17.40;99.90;;;;;;5059266;28;20319;-69
2022/08/23 05:47:48;;;;;;;5.93;1.52;;;17.40;99.90;;;;;;5056892;28;20053;-71
2022/08/23 05:50:30;;;;;;;5.90;1.23;;;17.40;99.90;;;;;;5051148;28;20064;-69
2022/08/23 05:52:57;;;;;;;7.60;1.48;;;17.50;99.90;;;;;;5045086;28;20094;-70
2022/08/23 05:55:25;;;;;;;6.28;1.50;;;17.50;99.90;;;;;;5044239;28;20138;-69
2022/08/23 05:58:30;;;;;;;2.08;1.25;;;17.50;99.90;;;;;;5054115;28;20045;-72
2022/08/23 06:00:56;;;;;;;2.60;1.00;;;17.50;99.90;;;;;;5041135;28;20153;-69
2022/08/23 06:03:24;;;;;;;6.97;0.93;;;17.60;99.90;;;;;;5059190;28;20091;-70
2022/08/23 06:05:56;;;;;;;2.35;0.77;;;17.70;99.90;;;;;;5056792;28;20044;-71
2022/08/23 06:08:24;;;;;;;5.78;0.85;;;17.70;99.90;;;;;;5059007;28;20136;-70
2022/08/23 06:11:02;;;;;;;5.32;1.27;;;17.80;99.90;;;;;;5031303;28;20110;-71
2022/08/23 06:13:37;;;;;;;3.03;0.75;;;17.80;99.90;;;;;;5050573;28;20084;-70
2022/08/23 06:16:05;;;;;;;5.32;1.98;;;17.90;99.90;;;;;;5057873;28;20131;-70
2022/08/23 06:18:43;;;;;;;1.33;0.70;;;17.90;99.90;;;;;;5042869;28;20047;-72
2022/08/23 06:21:30;;;;;;;2.22;2.05;;;18.00;99.90;;;;;;5060689;28;20113;-69
2022/08/23 06:23:57;;;;;;;5.63;1.83;;;18.00;99.90;;;;;;5076444;28;20044;-73
2022/08/23 06:26:32;;;;;;;2.17;0.57;;;18.10;99.90;;;;;;5041342;28;20433;-69
2022/08/23 06:29:04;;;;;;;1.75;0.88;;;18.20;99.90;;;;;;5037637;28;20544;-70
2022/08/23 06:31:46;;;;;;;5.15;1.20;;;18.30;99.90;;;;;;5050889;28;20065;-71
2022/08/23 06:34:35;;;;;;;3.80;0.83;;;18.40;99.90;;;;;;5045067;28;20070;-70
2022/08/23 06:37:13;;;;;;;5.40;2.13;;;18.50;99.90;;;;;;5064387;28;20203;-70
2022/08/23 06:39:59;;;;;;;2.35;0.82;;;18.60;99.90;;;;;;5084047;28;20106;-69
2022/08/23 06:42:40;;;;;;;5.15;1.20;;;18.70;99.90;;;;;;5061456;28;20048;-69
2022/08/23 06:45:08;;;;;;;3.78;1.13;;;18.80;99.90;;;;;;5083371;28;20040;-71
2022/08/23 06:47:39;;;;;;;1.77;0.73;;;18.90;99.90;;;;;;5083948;28;20083;-70
2022/08/23 06:50:06;;;;;;;3.15;0.90;;;18.90;99.90;;;;;;5067080;28;20089;-69
2022/08/23 06:52:53;;;;;;;4.72;2.20;;;19.00;99.90;;;;;;5083208;28;20132;-69
2022/08/23 06:55:47;;;;;;;1.55;0.82;;;19.10;99.90;;;;;;5050710;28;20037;-69
2022/08/23 06:58:19;;;;;;;2.72;1.30;;;19.20;99.90;;;;;;5067851;28;20730;-69
2022/08/23 07:01:15;;;;;;;1.08;0.80;;;19.30;99.90;;;;;;5057955;28;20719;-70
2022/08/23 07:04:12;;;;;;;1.67;0.82;;;19.40;99.90;;;;;;5045199;28;20043;-70
2022/08/23 07:07:00;;;;;;;3.30;1.48;;;19.60;99.90;;;;;;5065823;28;20056;-70
2022/08/23 07:09:28;;;;;;;7.53;2.03;;;19.70;99.90;;;;;;5063106;28;20043;-69
2022/08/23 07:11:56;;;;;;;2.55;0.70;;;19.70;99.90;;;;;;5067325;28;20047;-69
2022/08/23 07:14:24;;;;;;;2.45;0.77;;;19.80;99.90;;;;;;5085101;28;20495;-74
2022/08/23 07:16:55;;;;;;;4.07;1.20;;;19.90;99.90;;;;;;5064594;28;20036;-70
2022/08/23 07:19:26;;;;;;;2.55;0.80;;;20.00;99.90;;;;;;5083241;28;20455;-70
2022/08/23 07:21:56;;;;;;;1.15;1.05;;;20.10;99.90;;;;;;5079556;28;20122;-70
2022/08/23 07:24:23;;;;;;;1.95;0.95;;;20.20;99.90;;;;;;5066228;28;20052;-69
2022/08/23 07:26:57;;;;;;;4.43;1.67;;;20.30;99.90;;;;;;5070711;28;20082;-72
2022/08/23 07:29:24;;;;;;;2.83;0.70;;;20.30;99.90;;;;;;5064710;28;20044;-73
2022/08/23 07:31:53;;;;;;;3.50;1.02;;;20.40;99.90;;;;;;5064588;28;20036;-68
2022/08/23 07:34:23;;;;;;;1.73;0.98;;;20.50;99.90;;;;;;5066453;28;20070;-74
2022/08/23 07:36:52;;;;;;;1.83;1.15;;;20.60;99.90;;;;;;5066693;28;20036;-70
2022/08/23 07:39:21;;;;;;;6.38;2.13;;;20.60;99.90;;;;;;5082620;28;20059;-71
2022/08/23 07:41:48;;;;;;;1.55;1.05;;;20.70;99.90;;;;;;5064993;28;20055;-73
2022/08/23 07:44:16;;;;;;;1.45;1.13;;;20.70;99.90;;;;;;5063528;28;20163;-70
2022/08/23 07:46:45;;;;;;;1.63;1.37;;;20.80;99.90;;;;;;5079010;28;20135;-71
2022/08/23 07:49:14;;;;;;;1.92;0.75;;;20.90;99.90;;;;;;5061693;28;20338;-70
2022/08/23 07:51:49;;;;;;;3.47;1.60;;;20.90;99.90;;;;;;5064096;28;20043;-70
2022/08/23 07:54:18;;;;;;;1.02;0.75;;;20.90;99.90;;;;;;5078114;28;20044;-73
2022/08/23 07:56:57;;;;;;;;;;;20.90;99.90;;;;;;5065987;28;20174;-71
2022/08/23 07:59:47;;;;;;;2.47;0.82;;;20.90;99.90;;;;;;5082375;28;19920;-71
2022/08/23 08:02:33;;;;;;;3.20;0.77;;;20.90;99.90;;;;;;5084020;28;20039;-71
2022/08/23 08:05:01;;;;;;;0.90;0.70;;;20.90;99.90;;;;;;5063147;28;20075;-71
2022/08/23 08:07:29;;;;;;;2.15;0.85;;;20.80;99.90;;;;;;5062580;28;20110;-72
2022/08/23 08:10:02;;;;;;;2.50;0.85;;;20.80;99.90;;;;;;5066050;28;20044;-70
2022/08/23 08:12:31;;;;;;;2.47;0.88;;;20.70;99.90;;;;;;5064276;28;20312;-70
2022/08/23 08:15:05;;;;;;;4.60;0.77;;;20.70;99.90;;;;;;5060638;28;20139;-70
2022/08/23 08:17:37;;;;;;;2.88;0.77;;;20.80;99.90;;;;;;5062950;28;20047;-71
2022/08/23 08:20:10;;;;;;;0.90;0.50;;;20.80;99.90;;;;;;5079989;28;20046;-70
2022/08/23 08:23:04;;;;;;;4.20;1.05;;;20.80;99.90;;;;;;5068717;28;20044;-70
2022/08/23 08:26:00;;;;;;;2.17;0.80;;;20.80;99.90;;;;;;5081873;28;20052;-71
2022/08/23 08:28:28;;;;;;;0.88;0.43;;;20.90;99.90;;;;;;5065796;28;20470;-70
2022/08/23 08:30:57;;;;;;;1.40;0.57;;;20.90;99.90;;;;;;5065871;28;20056;-70
2022/08/23 08:33:26;;;;;;;0.88;0.57;;;21.00;99.90;;;;;;5061779;28;20751;-72
2022/08/23 08:35:58;;;;;;;5.38;1.45;;;21.00;99.90;;;;;;5063702;28;20046;-70
2022/08/23 08:38:27;;;;;;;3.38;1.50;;;21.00;99.90;;;;;;5078907;28;20118;-72
2022/08/23 08:41:10;;;;;;;1.83;1.17;;;21.10;99.90;;;;;;5064545;28;20139;-69
2022/08/23 08:43:49;;;;;;;3.25;0.98;;;21.10;99.90;;;;;;5062081;28;20158;-69
2022/08/23 08:46:36;;;;;;;0.95;0.80;;;21.30;99.90;;;;;;5062409;28;20040;-71
2022/08/23 08:49:04;;;;;;;1.33;1.02;;;21.30;99.90;;;;;;5058297;28;20543;-73
2022/08/23 08:52:05;;;;;;;3.63;1.33;;;21.40;99.90;;;;;;5061163;28;20044;-70
2022/08/23 08:54:33;;;;;;;1.42;0.60;;;21.40;99.90;;;;;;5025801;28;20143;-70
2022/08/23 08:57:01;;;;;;;3.10;1.05;;;21.30;99.90;;;;;;5063784;28;20055;-72
2022/08/23 08:59:43;;;;;;;3.60;1.10;;;21.30;99.90;;;;;;5064105;28;20082;-70
2022/08/23 09:02:18;;;;;;;3.47;0.65;;;21.30;99.90;;;;;;5065324;28;20048;-69
2022/08/23 09:05:09;;;;;;;1.30;0.70;;;21.40;99.90;;;;;;5064109;28;20075;-70
2022/08/23 09:07:43;;;;;;;3.60;1.10;;;21.40;99.90;;;;;;5060771;28;20148;-72
2022/08/23 09:10:42;;;;;;;1.17;0.90;;;21.50;99.90;;;;;;5083180;28;20048;-70
2022/08/23 09:13:37;;;;;;;5.00;0.90;;;21.70;99.90;;;;;;5053123;28;20044;-72
2022/08/23 09:16:39;;;;;;;1.30;0.77;;;21.90;99.90;;;;;;5063360;28;20043;-69
2022/08/23 09:19:06;;;;;;;2.72;1.10;;;22.10;99.90;;;;;;5054454;28;20066;-70
2022/08/23 09:21:52;;;;;;;1.05;0.85;;;22.30;99.90;;;;;;5079561;28;20050;-72
2022/08/23 09:24:19;;;;;;;3.20;1.55;;;22.30;99.90;;;;;;5062946;28;20142;-69
2022/08/23 09:26:56;;;;;;;1.85;0.90;;;22.40;99.90;;;;;;5064116;28;20039;-73
2022/08/23 09:29:30;;;;;;;5.00;2.83;;;22.50;99.90;;;;;;5081660;28;20040;-71
2022/08/23 09:32:02;;;;;;;3.15;1.05;;;22.50;99.90;;;;;;5082500;28;20052;-71
2022/08/23 09:34:33;;;;;;;0.90;0.63;;;22.60;99.90;;;;;;5057223;28;20377;-72
2022/08/23 09:37:23;;;;;;;2.22;0.85;;;22.70;99.90;;;;;;5082714;28;20044;-70
2022/08/23 09:40:12;;;;;;;5.43;0.90;;;22.90;99.90;;;;;;5077397;28;20044;-71
2022/08/23 09:42:40;;;;;;;1.60;0.55;;;23.20;99.90;;;;;;5074616;28;20048;-73
2022/08/23 09:45:29;;;;;;;2.90;1.10;;;23.40;99.90;;;;;;5061449;28;20044;-71
2022/08/23 09:48:04;;;;;;;2.78;1.08;;;23.40;99.90;;;;;;5063292;28;20517;-71
2022/08/23 09:50:53;;;;;;;3.50;1.60;;;23.50;99.90;;;;;;5083576;28;20040;-68
2022/08/23 09:53:26;;;;;;;1.80;1.05;;;23.50;99.90;;;;;;5079709;28;20515;-70
2022/08/23 09:55:57;;;;;;;1.67;0.90;;;23.50;99.90;;;;;;5073532;28;20193;-70
2022/08/23 09:58:35;;;;;;;4.40;1.23;;;23.60;99.90;;;;;;5064070;28;20481;-71
2022/08/23 10:01:23;;;;;;;3.10;1.75;;;23.50;99.90;;;;;;5064031;28;20460;-72
2022/08/23 10:04:09;;;;;;;3.60;2.33;;;23.70;99.90;;;;;;5068264;28;20063;-70
2022/08/23 10:06:37;;;;;;;2.25;1.17;;;23.70;99.90;;;;;;5061150;28;20097;-71
2022/08/23 10:09:07;;;;;;;1.63;1.27;;;23.80;99.90;;;;;;5073583;28;20044;-70
2022/08/23 10:11:43;;;;;;;1.80;0.95;;;23.80;99.90;;;;;;5065275;28;20052;-69
2022/08/23 10:14:17;;;;;;;3.17;0.95;;;23.80;99.90;;;;;;5069874;28;20123;-73
2022/08/23 10:17:07;;;;;;;2.67;1.02;;;23.50;99.90;;;;;;5067168;28;20119;-70
2022/08/23 10:19:44;;;;;;;3.47;1.47;;;23.50;99.90;;;;;;5079293;28;20265;-71
2022/08/23 10:22:25;;;;;;;1.57;0.80;;;23.40;99.90;;;;;;5070315;28;20044;-69
2022/08/23 10:25:28;;;;;;;2.03;1.17;;;23.30;99.90;;;;;;5069843;28;20048;-71
2022/08/23 10:31:00;;;;;;;4.80;1.73;;;22.80;99.90;;;;;;5068563;28;20151;-70
2022/08/23 10:34:04;;;;;;;2.38;1.52;;;22.70;99.90;;;;;;5064757;28;20083;-69
2022/08/23 10:36:59;;;;;;;2.95;0.98;;;22.60;99.90;;;;;;5051469;28;20635;-67
2022/08/23 10:39:28;;;;;;;3.13;1.00;;;22.50;99.90;;;;;;5061627;28;20048;-72
2022/08/23 10:42:13;;;;;;;1.75;1.65;;;22.40;99.90;;;;;;5083097;28;20549;-71
2022/08/23 10:44:57;;;;;;;1.98;1.30;;;22.30;99.90;;;;;;5063290;28;20388;-71
2022/08/23 10:47:40;;;;;;;5.82;1.52;;;22.30;99.90;;;;;;5064626;28;20059;-70
2022/08/23 10:50:19;;;;;;;2.67;1.52;;;22.30;99.90;;;;;;5066714;28;20075;-72
2022/08/23 10:53:01;;;;;;;2.78;1.60;;;22.40;99.90;;;;;;5068421;28;20410;-70
2022/08/23 10:55:43;;;;;;;3.22;1.73;;;22.50;99.90;;;;;;5083280;28;20055;-70
2022/08/23 10:58:21;;;;;;;3.72;1.60;;;22.60;99.90;;;;;;5066578;28;20048;-71
2022/08/23 11:00:50;;;;;;;2.50;1.10;;;22.70;99.90;;;;;;5082315;28;20496;-71
2022/08/23 11:03:31;;;;;;;3.42;1.30;;;22.80;99.90;;;;;;5076967;28;20437;-70
2022/08/23 11:06:34;;;;;;;3.47;1.35;;;22.90;99.90;;;;;;5067369;28;20091;-71
2022/08/23 11:09:29;;;;;;;1.45;1.08;;;23.00;99.90;;;;;;5063432;28;20050;-71
2022/08/23 11:12:22;;;;;;;1.95;1.45;;;23.10;99.90;;;;;;5058142;28;20044;-71
2022/08/23 11:15:03;;;;;;;4.40;1.60;;;23.30;99.90;;;;;;5058295;28;20032;-71
2022/08/23 11:17:54;;;;;;;2.58;1.48;;;23.30;99.90;;;;;;5063169;28;20044;-71
2022/08/23 11:20:50;;;;;;;2.13;1.10;;;23.20;99.90;;;;;;5057719;28;20048;-72
2022/08/23 11:23:46;;;;;;;3.00;2.03;;;23.10;99.90;;;;;;5082147;28;20043;-71
2022/08/23 11:26:21;;;;;;;2.03;1.10;;;22.80;99.90;;;;;;5064518;28;20446;-71
2022/08/23 11:29:14;;;;;;;2.55;1.70;;;22.70;99.90;;;;;;5084986;28;20040;-72
2022/08/23 11:31:59;;;;;;;1.98;1.15;;;22.70;99.90;;;;;;5062713;28;20418;-71
2022/08/23 11:34:48;;;;;;;1.60;1.42;;;22.60;99.90;;;;;;5067548;28;20068;-70
2022/08/23 11:37:18;;;;;;;2.53;1.93;;;22.40;99.90;;;;;;5070006;28;20746;-72
2022/08/23 11:39:56;;;;;;;3.80;1.08;;;22.30;99.90;;;;;;5067688;28;20040;-71
2022/08/23 11:42:46;;;;;;;3.45;2.17;;;22.10;99.90;;;;;;5068523;28;20047;-72
2022/08/23 11:45:25;;;;;;;5.13;2.20;;;22.10;99.90;;;;;;5066160;28;20051;-71
2022/08/23 11:48:12;;;;;;;2.10;1.15;;;21.90;99.90;;;;;;5062325;28;20480;-71
2022/08/23 11:50:50;;;;;;;2.42;1.85;;;21.80;99.90;;;;;;5085287;28;20105;-71
2022/08/23 11:53:48;;;;;;;4.45;3.80;;;21.80;99.90;;;;;;5083992;28;20114;-71
2022/08/23 11:56:46;;;;;;;4.47;2.58;;;21.80;99.90;;;;;;5083070;28;20048;-70
2022/08/23 11:59:28;;;;;;;2.65;1.52;;;21.80;99.90;;;;;;5066316;28;20058;-72
2022/08/23 12:01:58;;;;;;;4.63;2.42;;;21.60;99.90;;;;;;5083460;28;20044;-70
2022/08/23 12:04:37;;;;;;;4.00;1.60;;;21.60;99.90;;;;;;5081210;28;20048;-70
2022/08/23 12:07:11;;;;;;;3.40;2.38;;;21.50;99.90;;;;;;5079504;28;20155;-71
2022/08/23 12:09:41;;;;;;;3.67;1.67;;;21.50;99.90;;;;;;5082840;28;20133;-71
2022/08/23 12:12:23;;;;;;;4.75;2.85;;;21.40;99.90;;;;;;5083664;28;20048;-70
2022/08/23 12:14:57;;;;;;;4.20;1.63;;;21.40;99.90;;;;;;5080044;28;20446;-71
2022/08/23 12:17:24;;;;;;;1.92;1.50;;;21.40;99.90;;;;;;5063296;28;20097;-71
2022/08/23 12:20:06;;;;;;;3.90;1.50;;;21.40;99.90;;;;;;5081396;28;20059;-71
2022/08/23 12:23:06;;;;;;;2.83;1.80;;;21.30;99.90;;;;;;5080777;28;20048;-71
2022/08/23 12:25:34;;;;;;;8.13;2.58;;;21.30;99.90;;;;;;5081871;28;20136;-72
2022/08/23 12:28:10;;;;;;;3.03;1.77;;;21.20;99.90;;;;;;5085700;28;20056;-71
2022/08/23 12:31:01;;;;;;;2.42;1.65;;;21.20;99.90;;;;;;5083796;28;20407;-71
2022/08/23 12:33:47;;;;;;;2.45;1.63;;;21.20;99.90;;;;;;5081768;28;20109;-71
2022/08/23 12:37:01;;;;;;;3.22;2.22;;;21.10;99.90;;;;;;5081443;28;20431;-72
2022/08/23 12:39:38;;;;;;;;;;;21.00;99.90;;;;;;5030821;28;20345;-71
2022/08/23 12:42:18;;;;;;;1.58;1.48;;;21.00;99.90;;;;;;5078469;28;20023;-72
2022/08/23 12:44:46;;;;;;;;;;;21.00;99.90;;;;;;5084750;28;20241;-70
2022/08/23 12:47:19;;;;;;;7.13;2.97;;;20.90;99.90;;;;;;5083597;28;19999;-71
2022/08/23 12:50:00;;;;;;;4.00;1.70;;;20.90;99.90;;;;;;5082272;28;20047;-72
2022/08/23 12:52:30;;;;;;;3.22;2.30;;;20.90;99.90;;;;;;5080509;28;20077;-71
2022/08/23 12:54:58;;;;;;;3.45;1.95;;;20.80;99.90;;;;;;5081722;28;20163;-71
2022/08/23 12:57:41;;;;;;;7.13;2.10;;;20.80;99.90;;;;;;5080936;28;20068;-70
2022/08/23 13:00:13;;;;;;;5.35;2.25;;;20.70;99.90;;;;;;5084011;28;20121;-70
2022/08/23 13:02:52;;;;;;;5.25;2.20;;;20.70;99.90;;;;;;5083414;28;20127;-72
2022/08/23 13:05:37;;;;;;;2.30;2.10;;;20.70;99.90;;;;;;5082431;28;20441;-70
2022/08/23 13:08:12;;;;;;;5.15;2.53;;;20.70;99.90;;;;;;5081018;28;20569;-71
2022/08/23 13:10:41;;;;;;;4.15;1.60;;;20.60;99.90;;;;;;5082562;28;20040;-70
2022/08/23 13:13:15;;;;;;;4.65;1.85;;;20.60;99.90;;;;;;5082835;28;20127;-70
2022/08/23 13:15:52;;;;;;;3.78;1.73;;;20.60;99.90;;;;;;5080739;28;20152;-70
2022/08/23 13:18:44;;;;;;;6.05;1.95;;;20.50;99.90;;;;;;5085088;28;20044;-69
2022/08/23 13:21:38;;;;;;;3.40;2.03;;;20.50;99.90;;;;;;5073581;28;20102;-72
2022/08/23 13:24:27;;;;;;;2.17;1.65;;;20.50;99.90;;;;;;5078087;28;20040;-69
2022/08/23 13:27:18;;;;;;;2.45;2.25;;;20.50;99.90;;;;;;5083272;28;20308;-72
2022/08/23 13:29:54;;;;;;;5.93;1.90;;;20.50;99.90;;;;;;5064205;28;20109;-74
2022/08/23 13:32:36;;;;;;;4.13;2.30;;;20.50;99.90;;;;;;5088921;28;20412;-69
2022/08/23 13:35:25;;;;;;;2.20;2.00;;;20.40;99.90;;;;;;5068220;28;20048;-74
2022/08/23 13:37:57;;;;;;;5.90;2.00;;;20.40;99.90;;;;;;5077543;28;20035;-69
2022/08/23 13:40:30;;;;;;;2.40;1.77;;;20.40;99.90;;;;;;5079935;28;20133;-69